sensor_id;sensor_type;location;lat;lon;timestamp;P1;durP1;ratioP1;P2;durP2;ratioP2
59054;SDS011;44845;51.444;7.460;2023-08-01T00:00:08;2.45;;;0.73;;
59054;SDS011;44845;51.444;7.460;2023-08-01T00:02:34;1.63;;;0.25;;
59054;SDS011;44845;51.444;7.460;2023-08-01T00:04:59;2.05;;;0.25;;
59054;SDS011;44845;51.444;7.460;2023-08-01T00:07:26;2.10;;;0.30;;
59054;SDS011;44845;51.444;7.460;2023-08-01T00:09:52;4.75;;;0.52;;
59054;SDS011;44845;51.444;7.460;2023-08-01T00:12:18;1.17;;;0.28;;
59054;SDS011;44845;51.444;7.460;2023-08-01T00:14:43;1.20;;;0.20;;
59054;SDS011;44845;51.444;7.460;2023-08-01T00:17:08;3.67;;;0.40;;
59054;SDS011;44845;51.444;7.460;2023-08-01T00:19:34;2.22;;;0.38;;
59054;SDS011;44845;51.444;7.460;2023-08-01T00:21:59;2.90;;;0.30;;
59054;SDS011;44845;51.444;7.460;2023-08-01T00:24:25;4.82;;;0.50;;
59054;SDS011;44845;51.444;7.460;2023-08-01T00:26:50;1.35;;;0.30;;
59054;SDS011;44845;51.444;7.460;2023-08-01T00:29:16;3.15;;;0.30;;
59054;SDS011;44845;51.444;7.460;2023-08-01T00:31:41;7.65;;;0.30;;
59054;SDS011;44845;51.444;7.460;2023-08-01T00:34:07;0.60;;;0.50;;
59054;SDS011;44845;51.444;7.460;2023-08-01T00:36:32;4.78;;;0.40;;
59054;SDS011;44845;51.444;7.460;2023-08-01T00:38:57;5.18;;;0.30;;
59054;SDS011;44845;51.444;7.460;2023-08-01T00:41:23;1.02;;;0.35;;
59054;SDS011;44845;51.444;7.460;2023-08-01T00:43:48;1.48;;;0.30;;
59054;SDS011;44845;51.444;7.460;2023-08-01T00:46:13;3.58;;;0.40;;
59054;SDS011;44845;51.444;7.460;2023-08-01T00:48:39;0.50;;;0.30;;
59054;SDS011;44845;51.444;7.460;2023-08-01T00:51:05;0.75;;;0.25;;
59054;SDS011;44845;51.444;7.460;2023-08-01T00:53:33;0.68;;;0.20;;
59054;SDS011;44845;51.444;7.460;2023-08-01T00:55:59;3.42;;;0.50;;
59054;SDS011;44845;51.444;7.460;2023-08-01T00:58:25;7.85;;;0.38;;
59054;SDS011;44845;51.444;7.460;2023-08-01T01:00:50;0.50;;;0.40;;
59054;SDS011;44845;51.444;7.460;2023-08-01T01:03:16;1.30;;;0.30;;
59054;SDS011;44845;51.444;7.460;2023-08-01T01:05:52;2.65;;;0.20;;
59054;SDS011;44845;51.444;7.460;2023-08-01T01:08:22;2.25;;;0.10;;
59054;SDS011;44845;51.444;7.460;2023-08-01T01:10:47;3.05;;;0.20;;
59054;SDS011;44845;51.444;7.460;2023-08-01T01:13:12;0.20;;;0.13;;
59054;SDS011;44845;51.444;7.460;2023-08-01T01:15:38;4.57;;;0.35;;
59054;SDS011;44845;51.444;7.460;2023-08-01T01:18:06;0.88;;;0.20;;
59054;SDS011;44845;51.444;7.460;2023-08-01T01:20:34;0.15;;;0.15;;
59054;SDS011;44845;51.444;7.460;2023-08-01T01:23:00;1.25;;;0.30;;
59054;SDS011;44845;51.444;7.460;2023-08-01T01:25:28;0.40;;;0.30;;
59054;SDS011;44845;51.444;7.460;2023-08-01T01:27:54;1.00;;;0.20;;
59054;SDS011;44845;51.444;7.460;2023-08-01T01:30:21;2.58;;;0.40;;
59054;SDS011;44845;51.444;7.460;2023-08-01T01:32:47;0.57;;;0.30;;
59054;SDS011;44845;51.444;7.460;2023-08-01T01:35:14;1.63;;;0.30;;
59054;SDS011;44845;51.444;7.460;2023-08-01T01:37:39;1.05;;;0.47;;
59054;SDS011;44845;51.444;7.460;2023-08-01T01:40:05;0.60;;;0.50;;
59054;SDS011;44845;51.444;7.460;2023-08-01T01:42:30;0.30;;;0.30;;
59054;SDS011;44845;51.444;7.460;2023-08-01T01:44:56;0.63;;;0.32;;
59054;SDS011;44845;51.444;7.460;2023-08-01T01:47:21;0.43;;;0.40;;
59054;SDS011;44845;51.444;7.460;2023-08-01T01:49:46;1.48;;;0.47;;
59054;SDS011;44845;51.444;7.460;2023-08-01T01:52:12;3.13;;;0.60;;
59054;SDS011;44845;51.444;7.460;2023-08-01T01:54:37;4.95;;;0.52;;
59054;SDS011;44845;51.444;7.460;2023-08-01T01:57:02;1.23;;;0.60;;
59054;SDS011;44845;51.444;7.460;2023-08-01T01:59:28;2.80;;;0.80;;
59054;SDS011;44845;51.444;7.460;2023-08-01T02:01:53;1.27;;;0.60;;
59054;SDS011;44845;51.444;7.460;2023-08-01T02:04:18;2.35;;;0.88;;
59054;SDS011;44845;51.444;7.460;2023-08-01T02:06:45;2.17;;;0.93;;
59054;SDS011;44845;51.444;7.460;2023-08-01T02:09:10;1.27;;;0.65;;
59054;SDS011;44845;51.444;7.460;2023-08-01T02:11:35;2.83;;;0.57;;
59054;SDS011;44845;51.444;7.460;2023-08-01T02:14:01;0.73;;;0.60;;
59054;SDS011;44845;51.444;7.460;2023-08-01T02:16:28;6.80;;;0.80;;
59054;SDS011;44845;51.444;7.460;2023-08-01T02:18:53;6.35;;;0.80;;
59054;SDS011;44845;51.444;7.460;2023-08-01T02:21:18;1.75;;;0.52;;
59054;SDS011;44845;51.444;7.460;2023-08-01T02:23:44;1.98;;;0.80;;
59054;SDS011;44845;51.444;7.460;2023-08-01T02:26:09;2.08;;;0.77;;
59054;SDS011;44845;51.444;7.460;2023-08-01T02:28:34;1.00;;;0.70;;
59054;SDS011;44845;51.444;7.460;2023-08-01T02:31:00;2.10;;;0.80;;
59054;SDS011;44845;51.444;7.460;2023-08-01T02:33:25;3.33;;;1.00;;
59054;SDS011;44845;51.444;7.460;2023-08-01T02:35:50;2.38;;;0.80;;
59054;SDS011;44845;51.444;7.460;2023-08-01T02:38:16;3.97;;;1.40;;
59054;SDS011;44845;51.444;7.460;2023-08-01T02:40:41;3.70;;;1.15;;
59054;SDS011;44845;51.444;7.460;2023-08-01T02:43:06;2.60;;;1.35;;
59054;SDS011;44845;51.444;7.460;2023-08-01T02:45:32;3.85;;;1.40;;
59054;SDS011;44845;51.444;7.460;2023-08-01T02:47:57;4.85;;;1.35;;
59054;SDS011;44845;51.444;7.460;2023-08-01T02:50:22;3.38;;;1.40;;
59054;SDS011;44845;51.444;7.460;2023-08-01T02:52:48;4.50;;;1.13;;
59054;SDS011;44845;51.444;7.460;2023-08-01T02:55:13;3.60;;;1.50;;
59054;SDS011;44845;51.444;7.460;2023-08-01T02:57:38;3.45;;;1.55;;
59054;SDS011;44845;51.444;7.460;2023-08-01T03:00:04;3.75;;;1.42;;
59054;SDS011;44845;51.444;7.460;2023-08-01T03:02:30;3.05;;;1.40;;
59054;SDS011;44845;51.444;7.460;2023-08-01T03:04:56;4.53;;;1.60;;
59054;SDS011;44845;51.444;7.460;2023-08-01T03:07:21;4.18;;;1.70;;
59054;SDS011;44845;51.444;7.460;2023-08-01T03:09:47;3.65;;;2.15;;
59054;SDS011;44845;51.444;7.460;2023-08-01T03:12:12;4.55;;;2.38;;
59054;SDS011;44845;51.444;7.460;2023-08-01T03:14:37;4.57;;;1.80;;
59054;SDS011;44845;51.444;7.460;2023-08-01T03:17:03;5.07;;;2.30;;
59054;SDS011;44845;51.444;7.460;2023-08-01T03:19:28;5.15;;;2.67;;
59054;SDS011;44845;51.444;7.460;2023-08-01T03:21:53;5.90;;;2.22;;
59054;SDS011;44845;51.444;7.460;2023-08-01T03:24:20;2.78;;;2.20;;
59054;SDS011;44845;51.444;7.460;2023-08-01T03:26:45;4.97;;;2.53;;
59054;SDS011;44845;51.444;7.460;2023-08-01T03:29:10;6.95;;;2.92;;
59054;SDS011;44845;51.444;7.460;2023-08-01T03:31:36;5.63;;;3.58;;
59054;SDS011;44845;51.444;7.460;2023-08-01T03:34:01;6.15;;;3.33;;
59054;SDS011;44845;51.444;7.460;2023-08-01T03:36:26;11.65;;;5.05;;
59054;SDS011;44845;51.444;7.460;2023-08-01T03:38:52;6.47;;;5.15;;
59054;SDS011;44845;51.444;7.460;2023-08-01T03:41:17;9.88;;;6.28;;
59054;SDS011;44845;51.444;7.460;2023-08-01T03:43:42;8.95;;;6.13;;
59054;SDS011;44845;51.444;7.460;2023-08-01T03:46:09;13.02;;;6.80;;
59054;SDS011;44845;51.444;7.460;2023-08-01T03:48:34;7.05;;;6.38;;
59054;SDS011;44845;51.444;7.460;2023-08-01T03:51:00;11.10;;;6.82;;
59054;SDS011;44845;51.444;7.460;2023-08-01T03:53:25;10.40;;;7.10;;
59054;SDS011;44845;51.444;7.460;2023-08-01T03:55:51;12.23;;;7.43;;
59054;SDS011;44845;51.444;7.460;2023-08-01T03:58:16;14.27;;;8.48;;
59054;SDS011;44845;51.444;7.460;2023-08-01T04:00:41;11.02;;;8.80;;
59054;SDS011;44845;51.444;7.460;2023-08-01T04:03:07;14.60;;;9.55;;
59054;SDS011;44845;51.444;7.460;2023-08-01T04:05:32;15.98;;;9.73;;
59054;SDS011;44845;51.444;7.460;2023-08-01T04:07:58;11.30;;;9.82;;
59054;SDS011;44845;51.444;7.460;2023-08-01T04:10:24;14.60;;;9.95;;
59054;SDS011;44845;51.444;7.460;2023-08-01T04:12:49;14.35;;;9.88;;
59054;SDS011;44845;51.444;7.460;2023-08-01T04:15:15;13.20;;;10.35;;
59054;SDS011;44845;51.444;7.460;2023-08-01T04:17:40;13.45;;;10.68;;
59054;SDS011;44845;51.444;7.460;2023-08-01T04:20:06;11.15;;;9.80;;
59054;SDS011;44845;51.444;7.460;2023-08-01T04:22:32;19.83;;;10.90;;
59054;SDS011;44845;51.444;7.460;2023-08-01T04:24:57;12.35;;;10.35;;
59054;SDS011;44845;51.444;7.460;2023-08-01T04:27:22;14.95;;;10.43;;
59054;SDS011;44845;51.444;7.460;2023-08-01T04:29:48;14.18;;;10.32;;
59054;SDS011;44845;51.444;7.460;2023-08-01T04:32:13;15.93;;;10.07;;
59054;SDS011;44845;51.444;7.460;2023-08-01T04:34:40;16.00;;;9.65;;
59054;SDS011;44845;51.444;7.460;2023-08-01T04:37:06;10.43;;;8.93;;
59054;SDS011;44845;51.444;7.460;2023-08-01T04:39:31;13.90;;;9.05;;
59054;SDS011;44845;51.444;7.460;2023-08-01T04:41:57;12.70;;;8.35;;
59054;SDS011;44845;51.444;7.460;2023-08-01T04:44:22;15.95;;;8.32;;
59054;SDS011;44845;51.444;7.460;2023-08-01T04:46:47;14.43;;;8.10;;
59054;SDS011;44845;51.444;7.460;2023-08-01T04:49:13;11.30;;;7.55;;
59054;SDS011;44845;51.444;7.460;2023-08-01T04:51:39;13.57;;;7.18;;
59054;SDS011;44845;51.444;7.460;2023-08-01T04:54:04;10.35;;;6.53;;
59054;SDS011;44845;51.444;7.460;2023-08-01T04:56:29;14.35;;;6.10;;
59054;SDS011;44845;51.444;7.460;2023-08-01T04:58:55;16.98;;;7.18;;
59054;SDS011;44845;51.444;7.460;2023-08-01T05:01:20;15.98;;;6.28;;
59054;SDS011;44845;51.444;7.460;2023-08-01T05:03:46;11.40;;;5.38;;
59054;SDS011;44845;51.444;7.460;2023-08-01T05:06:11;12.90;;;5.57;;
59054;SDS011;44845;51.444;7.460;2023-08-01T05:08:36;11.23;;;5.40;;
59054;SDS011;44845;51.444;7.460;2023-08-01T05:11:02;10.40;;;5.25;;
59054;SDS011;44845;51.444;7.460;2023-08-01T05:13:27;11.55;;;5.40;;
59054;SDS011;44845;51.444;7.460;2023-08-01T05:15:53;8.48;;;5.07;;
59054;SDS011;44845;51.444;7.460;2023-08-01T05:18:18;11.80;;;5.55;;
59054;SDS011;44845;51.444;7.460;2023-08-01T05:20:44;10.40;;;6.22;;
59054;SDS011;44845;51.444;7.460;2023-08-01T05:23:09;9.05;;;6.30;;
59054;SDS011;44845;51.444;7.460;2023-08-01T05:25:34;12.27;;;6.32;;
59054;SDS011;44845;51.444;7.460;2023-08-01T05:28:00;11.30;;;6.65;;
59054;SDS011;44845;51.444;7.460;2023-08-01T05:30:25;16.02;;;6.78;;
59054;SDS011;44845;51.444;7.460;2023-08-01T05:32:51;11.52;;;6.95;;
59054;SDS011;44845;51.444;7.460;2023-08-01T05:35:16;12.15;;;7.70;;
59054;SDS011;44845;51.444;7.460;2023-08-01T05:37:42;13.93;;;8.07;;
59054;SDS011;44845;51.444;7.460;2023-08-01T05:40:08;15.13;;;8.93;;
59054;SDS011;44845;51.444;7.460;2023-08-01T05:42:33;13.40;;;9.02;;
59054;SDS011;44845;51.444;7.460;2023-08-01T05:44:59;13.48;;;9.38;;
59054;SDS011;44845;51.444;7.460;2023-08-01T05:47:24;11.20;;;9.77;;
59054;SDS011;44845;51.444;7.460;2023-08-01T05:49:50;16.13;;;9.93;;
59054;SDS011;44845;51.444;7.460;2023-08-01T05:52:15;20.10;;;10.30;;
59054;SDS011;44845;51.444;7.460;2023-08-01T05:54:40;17.92;;;11.25;;
59054;SDS011;44845;51.444;7.460;2023-08-01T05:57:06;19.20;;;11.07;;
59054;SDS011;44845;51.444;7.460;2023-08-01T05:59:32;15.98;;;11.93;;
59054;SDS011;44845;51.444;7.460;2023-08-01T06:01:58;17.75;;;11.30;;
59054;SDS011;44845;51.444;7.460;2023-08-01T06:04:23;15.52;;;12.05;;
59054;SDS011;44845;51.444;7.460;2023-08-01T06:06:48;18.30;;;11.98;;
59054;SDS011;44845;51.444;7.460;2023-08-01T06:09:14;16.23;;;11.43;;
59054;SDS011;44845;51.444;7.460;2023-08-01T06:11:39;19.58;;;11.85;;
59054;SDS011;44845;51.444;7.460;2023-08-01T06:14:04;23.30;;;11.82;;
59054;SDS011;44845;51.444;7.460;2023-08-01T06:16:30;12.68;;;10.93;;
59054;SDS011;44845;51.444;7.460;2023-08-01T06:18:55;14.93;;;11.90;;
59054;SDS011;44845;51.444;7.460;2023-08-01T06:21:21;18.17;;;12.15;;
59054;SDS011;44845;51.444;7.460;2023-08-01T06:23:47;15.20;;;11.60;;
59054;SDS011;44845;51.444;7.460;2023-08-01T06:26:12;16.40;;;11.30;;
59054;SDS011;44845;51.444;7.460;2023-08-01T06:28:40;23.60;;;13.32;;
59054;SDS011;44845;51.444;7.460;2023-08-01T06:31:05;24.35;;;12.90;;
59054;SDS011;44845;51.444;7.460;2023-08-01T06:33:31;16.88;;;12.95;;
59054;SDS011;44845;51.444;7.460;2023-08-01T06:35:56;19.52;;;13.05;;
59054;SDS011;44845;51.444;7.460;2023-08-01T06:38:22;20.25;;;14.32;;
59054;SDS011;44845;51.444;7.460;2023-08-01T06:40:47;19.88;;;13.55;;
59054;SDS011;44845;51.444;7.460;2023-08-01T06:43:12;21.92;;;14.10;;
59054;SDS011;44845;51.444;7.460;2023-08-01T06:45:38;23.08;;;12.85;;
59054;SDS011;44845;51.444;7.460;2023-08-01T06:48:03;21.13;;;12.77;;
59054;SDS011;44845;51.444;7.460;2023-08-01T06:50:28;17.92;;;11.20;;
59054;SDS011;44845;51.444;7.460;2023-08-01T06:52:54;18.52;;;11.10;;
59054;SDS011;44845;51.444;7.460;2023-08-01T06:55:19;18.27;;;10.88;;
59054;SDS011;44845;51.444;7.460;2023-08-01T06:57:45;13.68;;;10.40;;
59054;SDS011;44845;51.444;7.460;2023-08-01T07:00:10;15.80;;;10.73;;
59054;SDS011;44845;51.444;7.460;2023-08-01T07:02:36;15.20;;;10.18;;
59054;SDS011;44845;51.444;7.460;2023-08-01T07:05:01;17.02;;;9.98;;
59054;SDS011;44845;51.444;7.460;2023-08-01T07:07:27;17.77;;;9.88;;
59054;SDS011;44845;51.444;7.460;2023-08-01T07:09:52;19.45;;;9.40;;
59054;SDS011;44845;51.444;7.460;2023-08-01T07:12:17;11.77;;;8.52;;
59054;SDS011;44845;51.444;7.460;2023-08-01T07:14:43;10.93;;;8.30;;
59054;SDS011;44845;51.444;7.460;2023-08-01T07:17:08;13.80;;;8.70;;
59054;SDS011;44845;51.444;7.460;2023-08-01T07:19:34;15.30;;;8.77;;
59054;SDS011;44845;51.444;7.460;2023-08-01T07:21:59;12.85;;;9.10;;
59054;SDS011;44845;51.444;7.460;2023-08-01T07:24:24;16.65;;;9.00;;
59054;SDS011;44845;51.444;7.460;2023-08-01T07:26:50;11.32;;;7.97;;
59054;SDS011;44845;51.444;7.460;2023-08-01T07:29:15;13.50;;;8.60;;
59054;SDS011;44845;51.444;7.460;2023-08-01T07:31:41;15.88;;;9.23;;
59054;SDS011;44845;51.444;7.460;2023-08-01T07:34:07;9.48;;;7.85;;
59054;SDS011;44845;51.444;7.460;2023-08-01T07:36:32;13.40;;;9.07;;
59054;SDS011;44845;51.444;7.460;2023-08-01T07:38:58;11.88;;;8.60;;
59054;SDS011;44845;51.444;7.460;2023-08-01T07:41:23;10.52;;;8.73;;
59054;SDS011;44845;51.444;7.460;2023-08-01T07:43:48;15.00;;;8.40;;
59054;SDS011;44845;51.444;7.460;2023-08-01T07:46:14;14.35;;;9.05;;
59054;SDS011;44845;51.444;7.460;2023-08-01T07:48:39;15.00;;;8.43;;
59054;SDS011;44845;51.444;7.460;2023-08-01T07:51:05;12.65;;;8.68;;
59054;SDS011;44845;51.444;7.460;2023-08-01T07:53:32;15.80;;;8.55;;
59054;SDS011;44845;51.444;7.460;2023-08-01T07:55:58;14.77;;;7.57;;
59054;SDS011;44845;51.444;7.460;2023-08-01T07:58:23;12.85;;;7.85;;
59054;SDS011;44845;51.444;7.460;2023-08-01T08:00:49;13.27;;;8.20;;
59054;SDS011;44845;51.444;7.460;2023-08-01T08:03:14;10.45;;;8.35;;
59054;SDS011;44845;51.444;7.460;2023-08-01T08:05:40;12.48;;;8.40;;
59054;SDS011;44845;51.444;7.460;2023-08-01T08:08:05;14.30;;;8.27;;
59054;SDS011;44845;51.444;7.460;2023-08-01T08:10:31;14.50;;;7.97;;
59054;SDS011;44845;51.444;7.460;2023-08-01T08:12:56;15.48;;;8.05;;
59054;SDS011;44845;51.444;7.460;2023-08-01T08:15:22;16.48;;;7.70;;
59054;SDS011;44845;51.444;7.460;2023-08-01T08:17:48;10.35;;;6.80;;
59054;SDS011;44845;51.444;7.460;2023-08-01T08:20:14;12.88;;;7.07;;
59054;SDS011;44845;51.444;7.460;2023-08-01T08:22:39;11.98;;;7.20;;
59054;SDS011;44845;51.444;7.460;2023-08-01T08:25:05;12.27;;;7.32;;
59054;SDS011;44845;51.444;7.460;2023-08-01T08:27:30;9.02;;;6.60;;
59054;SDS011;44845;51.444;7.460;2023-08-01T08:29:56;12.80;;;6.78;;
59054;SDS011;44845;51.444;7.460;2023-08-01T08:32:21;10.95;;;6.05;;
59054;SDS011;44845;51.444;7.460;2023-08-01T08:34:46;9.18;;;6.00;;
59054;SDS011;44845;51.444;7.460;2023-08-01T08:37:12;11.75;;;5.57;;
59054;SDS011;44845;51.444;7.460;2023-08-01T08:39:37;10.50;;;6.28;;
59054;SDS011;44845;51.444;7.460;2023-08-01T08:42:02;9.40;;;5.07;;
59054;SDS011;44845;51.444;7.460;2023-08-01T08:44:30;12.38;;;6.00;;
59054;SDS011;44845;51.444;7.460;2023-08-01T08:47:00;9.40;;;5.75;;
59054;SDS011;44845;51.444;7.460;2023-08-01T08:49:31;14.95;;;5.85;;
59054;SDS011;44845;51.444;7.460;2023-08-01T08:51:57;16.77;;;5.85;;
59054;SDS011;44845;51.444;7.460;2023-08-01T08:54:23;10.52;;;6.10;;
59054;SDS011;44845;51.444;7.460;2023-08-01T08:56:49;8.35;;;5.50;;
59054;SDS011;44845;51.444;7.460;2023-08-01T08:59:15;9.13;;;6.07;;
59054;SDS011;44845;51.444;7.460;2023-08-01T09:01:41;9.38;;;6.35;;
59054;SDS011;44845;51.444;7.460;2023-08-01T09:04:06;12.18;;;6.13;;
59054;SDS011;44845;51.444;7.460;2023-08-01T09:06:32;11.60;;;6.40;;
59054;SDS011;44845;51.444;7.460;2023-08-01T09:09:04;9.45;;;5.32;;
59054;SDS011;44845;51.444;7.460;2023-08-01T09:11:53;9.27;;;5.75;;
59054;SDS011;44845;51.444;7.460;2023-08-01T09:14:21;7.90;;;5.72;;
59054;SDS011;44845;51.444;7.460;2023-08-01T09:16:47;10.23;;;5.88;;
59054;SDS011;44845;51.444;7.460;2023-08-01T09:19:16;12.95;;;4.95;;
59054;SDS011;44845;51.444;7.460;2023-08-01T09:21:42;14.80;;;5.20;;
59054;SDS011;44845;51.444;7.460;2023-08-01T09:24:11;6.15;;;4.38;;
59054;SDS011;44845;51.444;7.460;2023-08-01T09:26:38;8.77;;;4.57;;
59054;SDS011;44845;51.444;7.460;2023-08-01T09:29:04;9.18;;;4.45;;
59054;SDS011;44845;51.444;7.460;2023-08-01T09:31:30;7.95;;;4.38;;
59054;SDS011;44845;51.444;7.460;2023-08-01T09:34:00;9.43;;;4.43;;
59054;SDS011;44845;51.444;7.460;2023-08-01T09:36:26;10.50;;;4.80;;
59054;SDS011;44845;51.444;7.460;2023-08-01T09:38:57;12.27;;;5.55;;
59054;SDS011;44845;51.444;7.460;2023-08-01T09:41:24;11.68;;;4.88;;
59054;SDS011;44845;51.444;7.460;2023-08-01T09:43:49;8.60;;;5.30;;
59054;SDS011;44845;51.444;7.460;2023-08-01T09:46:15;9.45;;;5.40;;
59054;SDS011;44845;51.444;7.460;2023-08-01T09:48:40;7.45;;;4.70;;
59054;SDS011;44845;51.444;7.460;2023-08-01T09:51:16;5.47;;;4.18;;
59054;SDS011;44845;51.444;7.460;2023-08-01T09:53:50;10.85;;;4.47;;
59054;SDS011;44845;51.444;7.460;2023-08-01T09:56:20;6.43;;;4.50;;
59054;SDS011;44845;51.444;7.460;2023-08-01T09:58:50;7.82;;;3.83;;
59054;SDS011;44845;51.444;7.460;2023-08-01T10:01:18;8.95;;;4.60;;
59054;SDS011;44845;51.444;7.460;2023-08-01T10:03:45;5.85;;;4.40;;
59054;SDS011;44845;51.444;7.460;2023-08-01T10:06:22;6.53;;;3.85;;
59054;SDS011;44845;51.444;7.460;2023-08-01T10:08:49;8.02;;;4.35;;
59054;SDS011;44845;51.444;7.460;2023-08-01T10:11:17;9.48;;;4.30;;
59054;SDS011;44845;51.444;7.460;2023-08-01T10:13:44;7.25;;;3.65;;
59054;SDS011;44845;51.444;7.460;2023-08-01T10:16:10;6.88;;;3.55;;
59054;SDS011;44845;51.444;7.460;2023-08-01T10:18:37;8.30;;;3.70;;
59054;SDS011;44845;51.444;7.460;2023-08-01T10:21:07;9.15;;;3.95;;
59054;SDS011;44845;51.444;7.460;2023-08-01T10:23:42;8.05;;;3.42;;
59054;SDS011;44845;51.444;7.460;2023-08-01T10:26:10;9.07;;;3.83;;
59054;SDS011;44845;51.444;7.460;2023-08-01T10:28:37;10.93;;;3.67;;
59054;SDS011;44845;51.444;7.460;2023-08-01T10:31:10;6.40;;;3.25;;
59054;SDS011;44845;51.444;7.460;2023-08-01T10:33:43;7.45;;;3.10;;
59054;SDS011;44845;51.444;7.460;2023-08-01T10:38:44;5.80;;;2.53;;
59054;SDS011;44845;51.444;7.460;2023-08-01T10:43:45;6.13;;;2.60;;
59054;SDS011;44845;51.444;7.460;2023-08-01T10:46:11;6.68;;;2.80;;
59054;SDS011;44845;51.444;7.460;2023-08-01T10:48:47;4.63;;;2.78;;
59054;SDS011;44845;51.444;7.460;2023-08-01T10:51:16;6.38;;;2.35;;
59054;SDS011;44845;51.444;7.460;2023-08-01T10:53:41;5.00;;;2.95;;
59054;SDS011;44845;51.444;7.460;2023-08-01T10:56:07;7.20;;;2.88;;
59054;SDS011;44845;51.444;7.460;2023-08-01T10:58:33;5.05;;;2.85;;
59054;SDS011;44845;51.444;7.460;2023-08-01T11:01:00;5.88;;;3.25;;
59054;SDS011;44845;51.444;7.460;2023-08-01T11:03:44;6.30;;;3.33;;
59054;SDS011;44845;51.444;7.460;2023-08-01T11:06:09;6.70;;;3.67;;
59054;SDS011;44845;51.444;7.460;2023-08-01T11:08:35;5.80;;;3.60;;
59054;SDS011;44845;51.444;7.460;2023-08-01T11:11:03;5.05;;;3.15;;
59054;SDS011;44845;51.444;7.460;2023-08-01T11:13:30;8.52;;;4.28;;
59054;SDS011;44845;51.444;7.460;2023-08-01T11:15:55;7.05;;;4.10;;
59054;SDS011;44845;51.444;7.460;2023-08-01T11:18:21;7.70;;;4.18;;
59054;SDS011;44845;51.444;7.460;2023-08-01T11:20:47;7.35;;;3.88;;
59054;SDS011;44845;51.444;7.460;2023-08-01T11:23:12;7.18;;;3.60;;
59054;SDS011;44845;51.444;7.460;2023-08-01T11:25:38;6.93;;;3.55;;
59054;SDS011;44845;51.444;7.460;2023-08-01T11:28:09;6.00;;;3.33;;
59054;SDS011;44845;51.444;7.460;2023-08-01T11:30:36;6.75;;;3.50;;
59054;SDS011;44845;51.444;7.460;2023-08-01T11:33:02;4.97;;;2.53;;
59054;SDS011;44845;51.444;7.460;2023-08-01T11:35:37;6.95;;;2.47;;
59054;SDS011;44845;51.444;7.460;2023-08-01T11:38:03;7.18;;;2.88;;
59054;SDS011;44845;51.444;7.460;2023-08-01T11:40:29;4.82;;;2.50;;
59054;SDS011;44845;51.444;7.460;2023-08-01T11:42:56;5.60;;;3.10;;
59054;SDS011;44845;51.444;7.460;2023-08-01T11:45:22;6.15;;;2.97;;
59054;SDS011;44845;51.444;7.460;2023-08-01T11:47:47;7.22;;;3.08;;
59054;SDS011;44845;51.444;7.460;2023-08-01T11:50:13;6.78;;;3.20;;
59054;SDS011;44845;51.444;7.460;2023-08-01T11:52:46;3.45;;;2.80;;
59054;SDS011;44845;51.444;7.460;2023-08-01T11:55:18;5.85;;;3.03;;
59054;SDS011;44845;51.444;7.460;2023-08-01T11:57:56;5.32;;;3.03;;
59054;SDS011;44845;51.444;7.460;2023-08-01T12:00:23;7.55;;;3.22;;
59054;SDS011;44845;51.444;7.460;2023-08-01T12:03:04;6.55;;;3.13;;
59054;SDS011;44845;51.444;7.460;2023-08-01T12:05:38;5.55;;;3.00;;
59054;SDS011;44845;51.444;7.460;2023-08-01T12:08:12;9.43;;;2.50;;
59054;SDS011;44845;51.444;7.460;2023-08-01T12:10:43;3.58;;;2.17;;
59054;SDS011;44845;51.444;7.460;2023-08-01T12:13:21;4.45;;;1.80;;
59054;SDS011;44845;51.444;7.460;2023-08-01T12:15:49;4.05;;;1.98;;
59054;SDS011;44845;51.444;7.460;2023-08-01T12:20:47;2.83;;;1.73;;
59054;SDS011;44845;51.444;7.460;2023-08-01T12:23:13;4.97;;;2.00;;
59054;SDS011;44845;51.444;7.460;2023-08-01T12:25:38;4.68;;;2.25;;
59054;SDS011;44845;51.444;7.460;2023-08-01T12:28:04;2.80;;;2.20;;
59054;SDS011;44845;51.444;7.460;2023-08-01T12:30:29;6.65;;;2.78;;
59054;SDS011;44845;51.444;7.460;2023-08-01T12:32:55;4.53;;;2.70;;
59054;SDS011;44845;51.444;7.460;2023-08-01T12:35:20;4.47;;;2.95;;
59054;SDS011;44845;51.444;7.460;2023-08-01T12:37:45;5.32;;;3.05;;
59054;SDS011;44845;51.444;7.460;2023-08-01T12:40:11;7.30;;;3.38;;
59054;SDS011;44845;51.444;7.460;2023-08-01T12:42:36;5.38;;;3.03;;
59054;SDS011;44845;51.444;7.460;2023-08-01T12:45:02;6.22;;;3.00;;
59054;SDS011;44845;51.444;7.460;2023-08-01T12:47:28;4.75;;;3.00;;
59054;SDS011;44845;51.444;7.460;2023-08-01T12:49:54;8.07;;;3.10;;
59054;SDS011;44845;51.444;7.460;2023-08-01T12:52:23;4.28;;;2.65;;
59054;SDS011;44845;51.444;7.460;2023-08-01T12:54:52;4.63;;;2.40;;
59054;SDS011;44845;51.444;7.460;2023-08-01T12:57:17;6.00;;;2.47;;
59054;SDS011;44845;51.444;7.460;2023-08-01T12:59:43;5.15;;;2.78;;
59054;SDS011;44845;51.444;7.460;2023-08-01T13:02:09;4.30;;;2.50;;
59054;SDS011;44845;51.444;7.460;2023-08-01T13:04:34;7.15;;;2.67;;
59054;SDS011;44845;51.444;7.460;2023-08-01T13:07:00;6.15;;;3.30;;
59054;SDS011;44845;51.444;7.460;2023-08-01T13:09:25;6.57;;;3.28;;
59054;SDS011;44845;51.444;7.460;2023-08-01T13:11:51;6.63;;;3.28;;
59054;SDS011;44845;51.444;7.460;2023-08-01T13:14:16;8.27;;;3.40;;
59054;SDS011;44845;51.444;7.460;2023-08-01T13:16:41;6.00;;;3.20;;
59054;SDS011;44845;51.444;7.460;2023-08-01T13:19:07;5.07;;;3.15;;
59054;SDS011;44845;51.444;7.460;2023-08-01T13:21:33;11.35;;;3.58;;
59054;SDS011;44845;51.444;7.460;2023-08-01T13:24:01;9.90;;;2.72;;
59054;SDS011;44845;51.444;7.460;2023-08-01T13:26:33;9.40;;;3.25;;
59054;SDS011;44845;51.444;7.460;2023-08-01T13:28:59;5.43;;;2.50;;
59054;SDS011;44845;51.444;7.460;2023-08-01T13:31:27;5.97;;;2.47;;
59054;SDS011;44845;51.444;7.460;2023-08-01T13:33:53;4.43;;;2.25;;
59054;SDS011;44845;51.444;7.460;2023-08-01T13:36:19;5.38;;;1.98;;
59054;SDS011;44845;51.444;7.460;2023-08-01T13:38:44;5.88;;;2.15;;
59054;SDS011;44845;51.444;7.460;2023-08-01T13:41:10;10.65;;;2.67;;
59054;SDS011;44845;51.444;7.460;2023-08-01T13:43:35;5.55;;;2.30;;
59054;SDS011;44845;51.444;7.460;2023-08-01T13:46:07;6.78;;;2.30;;
59054;SDS011;44845;51.444;7.460;2023-08-01T13:48:43;4.93;;;2.05;;
59054;SDS011;44845;51.444;7.460;2023-08-01T13:51:09;6.93;;;2.33;;
59054;SDS011;44845;51.444;7.460;2023-08-01T13:53:35;5.10;;;1.85;;
59054;SDS011;44845;51.444;7.460;2023-08-01T13:56:05;4.97;;;1.90;;
59054;SDS011;44845;51.444;7.460;2023-08-01T13:58:34;7.72;;;1.92;;
59054;SDS011;44845;51.444;7.460;2023-08-01T14:01:03;5.20;;;1.90;;
59054;SDS011;44845;51.444;7.460;2023-08-01T14:03:29;5.55;;;2.20;;
59054;SDS011;44845;51.444;7.460;2023-08-01T14:05:55;4.80;;;1.98;;
59054;SDS011;44845;51.444;7.460;2023-08-01T14:08:21;7.03;;;1.80;;
59054;SDS011;44845;51.444;7.460;2023-08-01T14:10:46;4.70;;;1.90;;
59054;SDS011;44845;51.444;7.460;2023-08-01T14:13:12;4.47;;;1.70;;
59054;SDS011;44845;51.444;7.460;2023-08-01T14:15:37;3.30;;;1.42;;
59054;SDS011;44845;51.444;7.460;2023-08-01T14:18:02;5.22;;;1.40;;
59054;SDS011;44845;51.444;7.460;2023-08-01T14:20:28;5.28;;;1.50;;
59054;SDS011;44845;51.444;7.460;2023-08-01T14:22:53;2.47;;;1.40;;
59054;SDS011;44845;51.444;7.460;2023-08-01T14:25:18;6.57;;;1.33;;
59054;SDS011;44845;51.444;7.460;2023-08-01T14:27:44;5.30;;;1.40;;
59054;SDS011;44845;51.444;7.460;2023-08-01T14:30:09;4.30;;;1.50;;
59054;SDS011;44845;51.444;7.460;2023-08-01T14:32:36;4.25;;;1.52;;
59054;SDS011;44845;51.444;7.460;2023-08-01T14:35:02;4.65;;;1.70;;
59054;SDS011;44845;51.444;7.460;2023-08-01T14:37:27;8.60;;;1.80;;
59054;SDS011;44845;51.444;7.460;2023-08-01T14:39:54;4.90;;;1.55;;
59054;SDS011;44845;51.444;7.460;2023-08-01T14:42:20;4.20;;;1.55;;